Time;durP1;ratioP1;P1;durP2;ratioP2;P2;SDS_P1;SDS_P2;PMS_P1;PMS_P2;Temp;Humidity;BMP_temperature;BMP_pressure;BME280_temperature;BME280_humidity;BME280_pressure;Samples;Min_cycle;Max_cycle;Signal;HPM_P1;HPM_P2
2023/06/05 00:03:24;;;;;;;;;;;;;;;11.40;100.00;102339.03;10578243;28;20034;-71
2023/06/05 00:08:24;;;;;;;;;;;;;;;11.34;100.00;102339.72;10578104;28;19924;-71
2023/06/05 00:13:24;;;;;;;;;;;;;;;11.32;100.00;102336.31;10576190;28;20338;-71
2023/06/05 00:18:25;;;;;;;;;;;;;;;11.27;100.00;102335.97;10575894;28;20399;-71
2023/06/05 00:23:25;;;;;;;;;;;;;;;11.24;100.00;102344.44;10576568;28;20026;-71
2023/06/05 00:28:25;;;;;;;;;;;;;;;11.22;100.00;102346.47;10577692;28;19935;-71
2023/06/05 00:33:26;;;;;;;;;;;;;;;11.17;100.00;102343.44;10559021;28;19979;-71
2023/06/05 00:38:26;;;;;;;;;;;;;;;11.13;100.00;102339.31;10575894;28;20001;-71
2023/06/05 00:43:26;;;;;;;;;;;;;;;11.13;100.00;102350.16;10575618;28;19931;-71
2023/06/05 00:48:27;;;;;;;;;;;;;;;11.08;100.00;102347.13;10576862;28;19927;-71
2023/06/05 00:53:27;;;;;;;;;;;;;;;11.05;100.00;102350.16;10576951;28;20033;-71
2023/06/05 00:58:28;;;;;;;;;;;;;;;11.02;100.00;102339.66;10575356;28;19916;-71
2023/06/05 01:03:29;;;;;;;;;;;;;;;10.96;100.00;102340.31;10575560;28;19916;-71
2023/06/05 01:08:38;;;;;;;;;;;;;;;10.90;100.00;102339.09;10558387;28;19946;-71
2023/06/05 01:13:39;;;;;;;;;;;;;;;10.90;100.00;102337.22;10574802;28;19915;-71
2023/06/05 01:18:40;;;;;;;;;;;;;;;10.89;100.00;102329.28;10557622;28;19923;-71
2023/06/05 01:23:44;;;;;;;;;;;;;;;10.87;100.00;102331.28;10575634;28;19996;-71
2023/06/05 01:28:46;;;;;;;;;;;;;;;10.82;100.00;102329.09;10575179;28;19967;-71
2023/06/05 01:33:51;;;;;;;;;;;;;;;10.82;100.00;102322.81;10574569;28;20442;-71
2023/06/05 01:38:51;;;;;;;;;;;;;;;10.79;100.00;102321.28;10573510;28;20018;-71
2023/06/05 01:43:52;;;;;;;;;;;;;;;10.78;100.00;102321.44;10558269;28;20306;-71
2023/06/05 01:48:54;;;;;;;;;;;;;;;10.76;100.00;102316.19;10532024;28;19970;-71
2023/06/05 01:53:55;;;;;;;;;;;;;;;10.72;100.00;102322.97;10532477;28;19999;-71
2023/06/05 01:58:56;;;;;;;;;;;;;;;10.67;100.00;102312.59;10533998;28;19965;-71
2023/06/05 02:03:57;;;;;;;;;;;;;;;10.62;100.00;102317.66;10532378;28;19924;-71
2023/06/05 02:08:57;;;;;;;;;;;;;;;10.56;100.00;102317.47;10513816;28;19973;-71
2023/06/05 02:13:59;;;;;;;;;;;;;;;10.50;100.00;102309.97;10529927;28;20363;-70
2023/06/05 02:19:03;;;;;;;;;;;;;;;10.46;100.00;102313.03;10532034;28;19920;-71
2023/06/05 02:24:04;;;;;;;;;;;;;;;10.43;100.00;102307.94;10531268;28;20275;-71
2023/06/05 02:29:05;;;;;;;;;;;;;;;10.39;100.00;102303.84;10530897;28;19947;-71
2023/06/05 02:34:05;;;;;;;;;;;;;;;10.37;100.00;102308.59;10530953;28;19927;-71
2023/06/05 02:39:05;;;;;;;;;;;;;;;10.34;100.00;102308.03;10531489;28;19939;-71
2023/06/05 02:44:06;;;;;;;;;;;;;;;10.34;100.00;102308.91;10537401;28;20358;-71
2023/06/05 02:49:06;;;;;;;;;;;;;;;10.36;100.00;102306.88;10538444;28;20374;-71
2023/06/05 02:54:07;;;;;;;;;;;;;;;10.34;100.00;102306.22;10538586;28;20010;-71
2023/06/05 02:59:09;;;;;;;;;;;;;;;10.32;100.00;102299.25;10536828;28;20027;-71
2023/06/05 03:04:10;;;;;;;;;;;;;;;10.29;100.00;102294.16;10536353;28;20378;-71
2023/06/05 03:09:11;;;;;;;;;;;;;;;10.25;100.00;102288.19;10537770;28;19920;-70
2023/06/05 03:14:11;;;;;;;;;;;;;;;10.23;100.00;102291.03;10537259;28;19988;-70
2023/06/05 03:19:12;;;;;;;;;;;;;;;10.19;100.00;102284.25;10535828;28;19916;-71
2023/06/05 03:24:12;;;;;;;;;;;;;;;10.19;100.00;102288.81;10537535;28;19916;-71
2023/06/05 03:29:13;;;;;;;;;;;;;;;10.19;100.00;102283.41;10536873;28;19985;-71
2023/06/05 03:34:13;;;;;;;;;;;;;;;10.15;100.00;102277.47;10536910;28;19924;-70
2023/06/05 03:39:14;;;;;;;;;;;;;;;10.15;100.00;102282.03;10536726;28;20002;-71
2023/06/05 03:44:14;;;;;;;;;;;;;;;10.16;100.00;102291.84;10536162;28;20068;-71
2023/06/05 03:49:14;;;;;;;;;;;;;;;10.17;100.00;102291.69;10534745;28;19968;-71
2023/06/05 03:54:16;;;;;;;;;;;;;;;10.18;100.00;102290.69;10534367;28;20298;-71
2023/06/05 03:59:21;;;;;;;;;;;;;;;10.18;100.00;102292.56;10534891;28;20279;-70
2023/06/05 04:04:22;;;;;;;;;;;;;;;10.22;100.00;102288.50;10534252;28;19935;-70
2023/06/05 04:09:22;;;;;;;;;;;;;;;10.22;100.00;102294.75;10535651;28;19920;-71
2023/06/05 04:14:23;;;;;;;;;;;;;;;10.30;100.00;102302.09;10535059;28;20332;-70
2023/06/05 04:19:23;;;;;;;;;;;;;;;10.36;100.00;102306.88;10534531;28;19924;-71
2023/06/05 04:24:25;;;;;;;;;;;;;;;10.52;100.00;102305.25;10535580;28;19924;-71
2023/06/05 04:34:35;;;;;;;;;;;;;;;10.97;100.00;102307.59;11157196;22;19940;-68
2023/06/05 04:39:35;;;;;;;;;;;;;;;11.06;100.00;102303.06;10438748;28;19975;-71
2023/06/05 04:44:37;;;;;;;;;;;;;;;11.26;100.00;102320.72;10457244;28;20320;-71
2023/06/05 04:49:38;;;;;;;;;;;;;;;11.56;100.00;102315.66;10439732;28;19933;-70
2023/06/05 04:54:39;;;;;;;;;;;;;;;11.93;100.00;102312.44;10437827;28;20371;-69
2023/06/05 04:59:40;;;;;;;;;;;;;;;12.10;100.00;102308.69;10454598;28;19921;-69
2023/06/05 05:04:41;;;;;;;;;;;;;;;12.25;100.00;102313.38;10454095;28;20076;-69
2023/06/05 05:09:42;;;;;;;;;;;;;;;12.60;100.00;102313.94;10436844;28;19944;-68
2023/06/05 05:14:42;;;;;;;;;;;;;;;12.97;100.00;102303.22;10437042;28;19939;-69
2023/06/05 05:19:43;;;;;;;;;;;;;;;13.26;100.00;102304.44;10454735;28;20317;-69
2023/06/05 05:24:43;;;;;;;;;;;;;;;13.44;100.00;102307.72;10454988;28;19921;-69
2023/06/05 05:29:43;;;;;;;;;;;;;;;13.87;100.00;102302.56;10454272;28;19939;-70
2023/06/05 05:34:43;;;;;;;;;;;;;;;14.33;100.00;102307.03;10435823;28;19928;-70
2023/06/05 05:39:44;;;;;;;;;;;;;;;15.09;100.00;102307.56;10436047;28;20023;-69
2023/06/05 05:44:44;;;;;;;;;;;;;;;14.97;100.00;102300.97;10454328;28;19944;-69
2023/06/05 05:49:45;;;;;;;;;;;;;;;14.79;100.00;102302.19;10455010;28;19989;-70
2023/06/05 05:54:45;;;;;;;;;;;;;;;14.36;100.00;102302.03;10454582;28;19958;-68
2023/06/05 05:59:45;;;;;;;;;;;;;;;14.07;100.00;102305.63;10454476;28;19956;-69
2023/06/05 06:04:46;;;;;;;;;;;;;;;14.33;100.00;102309.75;10453836;28;20251;-69
2023/06/05 06:09:46;;;;;;;;;;;;;;;14.61;100.00;102315.38;10453182;28;19925;-69
2023/06/05 06:14:47;;;;;;;;;;;;;;;15.05;100.00;102312.56;10453123;28;19959;-69
2023/06/05 06:19:48;;;;;;;;;;;;;;;15.46;99.35;102309.22;10460848;28;19921;-69
2023/06/05 06:24:50;;;;;;;;;;;;;;;15.56;97.04;102314.34;10461795;28;20362;-70
2023/06/05 06:29:53;;;;;;;;;;;;;;;15.96;94.92;102320.19;10462753;28;20243;-69
2023/06/05 06:34:54;;;;;;;;;;;;;;;15.80;94.20;102318.59;10445143;28;19963;-69
2023/06/05 06:39:55;;;;;;;;;;;;;;;16.41;89.56;102312.50;10463435;28;19923;-70
2023/06/05 06:44:55;;;;;;;;;;;;;;;16.90;88.12;102320.53;10463445;28;19934;-70
2023/06/05 06:49:56;;;;;;;;;;;;;;;17.38;87.16;102312.22;10461959;28;19992;-69
2023/06/05 06:54:56;;;;;;;;;;;;;;;17.27;82.67;102321.06;10442352;28;19928;-70
2023/06/05 06:59:57;;;;;;;;;;;;;;;17.34;82.41;102321.91;10443285;28;19955;-69
2023/06/05 07:04:57;;;;;;;;;;;;;;;17.30;82.81;102319.81;10462164;28;19951;-71
2023/06/05 07:10:00;;;;;;;;;;;;;;;18.13;80.84;102323.03;10460002;28;19936;-70
2023/06/05 07:15:01;;;;;;;;;;;;;;;18.96;77.94;102319.63;10460136;28;19975;-69
2023/06/05 07:20:01;;;;;;;;;;;;;;;19.20;74.31;102329.81;10442322;28;19971;-70
2023/06/05 07:25:03;;;;;;;;;;;;;;;20.28;71.99;102337.03;10459498;28;19970;-71
2023/06/05 07:30:03;;;;;;;;;;;;;;;20.52;63.33;102329.00;10458908;28;19927;-69
2023/06/05 07:35:04;;;;;;;;;;;;;;;20.09;60.58;102336.16;10441657;28;19920;-70
2023/06/05 07:40:05;;;;;;;;;;;;;;;19.77;64.38;102327.13;10439937;28;19932;-70
2023/06/05 07:45:05;;;;;;;;;;;;;;;20.82;63.27;102320.78;10440533;28;19920;-70
2023/06/05 07:50:06;;;;;;;;;;;;;;;21.45;59.54;102322.25;10458595;28;20007;-69
2023/06/05 07:55:07;;;;;;;;;;;;;;;21.28;56.61;102322.03;10458242;28;19924;-70
2023/06/05 08:00:09;;;;;;;;;;;;;;;21.32;56.25;102317.75;10458156;28;20353;-70
2023/06/05 08:05:09;;;;;;;;;;;;;;;21.04;55.21;102326.63;10457349;28;19928;-70
2023/06/05 08:10:10;;;;;;;;;;;;;;;21.59;56.52;102320.97;10457337;28;19928;-70
2023/06/05 08:15:10;;;;;;;;;;;;;;;21.88;53.59;102318.38;10439161;28;19927;-70
2023/06/05 08:20:10;;;;;;;;;;;;;;;22.16;51.55;102321.28;10423441;28;20003;-70
2023/06/05 08:25:11;;;;;;;;;;;;;;;21.64;51.35;102312.84;10456709;28;20268;-70
2023/06/05 08:30:11;;;;;;;;;;;;;;;21.84;53.52;102334.56;10438217;28;19952;-70
2023/06/05 08:35:12;;;;;;;;;;;;;;;21.09;52.09;102313.84;10456463;28;19929;-70
2023/06/05 08:40:12;;;;;;;;;;;;;;;21.94;53.55;102309.97;10437557;28;20283;-70
2023/06/05 08:45:12;;;;;;;;;;;;;;;23.17;50.00;102312.66;10437552;28;19916;-70
2023/06/05 08:50:12;;;;;;;;;;;;;;;23.14;52.20;102307.63;10438165;28;19924;-71
2023/06/05 08:55:13;;;;;;;;;;;;;;;23.61;51.47;102299.91;10455908;28;20062;-70
2023/06/05 09:00:14;;;;;;;;;;;;;;;23.88;48.08;102308.38;10438007;28;20363;-70
2023/06/05 09:05:15;;;;;;;;;;;;;;;23.75;46.95;102308.72;10455671;28;20396;-70
2023/06/05 09:10:22;;;;;;;;;;;;;;;23.82;47.44;102300.25;10437447;28;19928;-70
2023/06/05 09:15:23;;;;;;;;;;;;;;;23.66;45.60;102296.38;10456515;28;19921;-70
2023/06/05 09:20:24;;;;;;;;;;;;;;;24.06;48.29;102306.44;10437704;28;19917;-70
2023/06/05 09:25:25;;;;;;;;;;;;;;;24.52;49.29;102296.03;10454439;28;19967;-70
2023/06/05 09:30:25;;;;;;;;;;;;;;;25.61;48.58;102283.03;10437890;28;19967;-70
2023/06/05 09:35:25;;;;;;;;;;;;;;;25.95;46.99;102281.66;10436438;28;20338;-71
2023/06/05 09:40:38;;;;;;;;;;;;;;;26.18;46.56;102288.72;10437017;28;19927;-70
2023/06/05 09:45:42;;;;;;;;;;;;;;;26.48;43.80;102287.22;10453797;28;19921;-71
2023/06/05 09:50:42;;;;;;;;;;;;;;;26.06;45.93;102285.31;10439464;28;19928;-69
2023/06/05 09:55:43;;;;;;;;;;;;;;;26.45;44.75;102282.19;10445116;28;19924;-70
2023/06/05 10:00:44;;;;;;;;;;;;;;;25.77;44.04;102286.78;10444972;28;19916;-71
2023/06/05 10:05:47;;;;;;;;;;;;;;;25.93;43.58;102286.63;10444214;28;19952;-70
2023/06/05 10:10:47;;;;;;;;;;;;;;;25.98;42.76;102286.69;10445243;28;19917;-71
2023/06/05 10:15:48;;;;;;;;;;;;;;;25.59;42.67;102269.44;10429340;28;19916;-71
2023/06/05 10:20:48;;;;;;;;;;;;;;;25.42;43.39;102279.81;10461082;28;20043;-70
2023/06/05 10:25:49;;;;;;;;;;;;;;;26.29;44.19;102277.66;10460531;28;19917;-69
2023/06/05 10:30:58;;;;;;;;;;;;;;;25.99;42.33;102262.53;10461089;28;19955;-71
2023/06/05 10:36:18;;;;;;;;;;;;;;;26.64;42.35;102260.34;10444000;28;20008;-70
2023/06/05 10:41:18;;;;;;;;;;;;;;;26.00;42.16;102257.81;10442760;28;19917;-70
2023/06/05 10:46:30;;;;;;;;;;;;;;;25.59;42.32;102252.81;10443137;28;19917;-70
2023/06/05 10:51:39;;;;;;;;;;;;;;;26.41;44.76;102261.63;10442424;28;19955;-70
2023/06/05 10:56:52;;;;;;;;;;;;;;;26.58;41.88;102259.53;10460356;28;20013;-70
2023/06/05 11:02:17;;;;;;;;;;;;;;;27.06;44.39;102251.84;10441866;28;19923;-70
2023/06/05 11:07:18;;;;;;;;;;;;;;;27.39;42.52;102255.22;10459626;28;19988;-70
2023/06/05 11:12:18;;;;;;;;;;;;;;;26.50;43.18;102251.69;10440767;28;19947;-69
2023/06/05 11:17:28;;;;;;;;;;;;;;;26.78;43.69;102241.22;10424823;28;19927;-71
2023/06/05 11:22:29;;;;;;;;;;;;;;;27.16;44.56;102247.44;10440686;28;19923;-70
2023/06/05 11:27:42;;;;;;;;;;;;;;;27.06;43.37;102249.06;10459305;28;20015;-70
2023/06/05 11:32:43;;;;;;;;;;;;;;;27.46;42.73;102244.66;10458130;28;19925;-70
2023/06/05 11:37:43;;;;;;;;;;;;;;;27.00;43.89;102238.22;10441084;28;19921;-71
2023/06/05 11:42:44;;;;;;;;;;;;;;;27.28;44.49;102231.28;10460372;28;19951;-71
2023/06/05 11:47:44;;;;;;;;;;;;;;;27.37;42.73;102226.84;10444071;28;20348;-71
2023/06/05 11:52:45;;;;;;;;;;;;;;;27.05;42.46;102224.31;10442706;28;20371;-70
2023/06/05 11:57:46;;;;;;;;;;;;;;;27.02;44.04;102231.25;10458478;28;20321;-71
2023/06/05 12:02:46;;;;;;;;;;;;;;;27.59;44.35;102230.16;10441312;28;20023;-71
2023/06/05 12:07:48;;;;;;;;;;;;;;;27.59;43.98;102223.78;10458302;28;20110;-71
2023/06/05 12:12:54;;;;;;;;;;;;;;;27.93;42.75;102237.09;10439411;28;19921;-70
2023/06/05 12:17:55;;;;;;;;;;;;;;;27.56;44.08;102230.72;10422335;28;19932;-71
2023/06/05 12:22:56;;;;;;;;;;;;;;;27.59;43.03;102232.13;10456179;28;19923;-72
2023/06/05 12:27:57;;;;;;;;;;;;;;;27.19;41.07;102224.66;10438444;28;19925;-71
2023/06/05 12:33:04;;;;;;;;;;;;;;;27.09;43.97;102223.50;10456004;28;19929;-71
2023/06/05 12:38:04;;;;;;;;;;;;;;;26.92;42.13;102216.50;10421618;28;19917;-70
2023/06/05 12:43:15;;;;;;;;;;;;;;;27.01;44.50;102220.41;10437701;28;19921;-71
2023/06/05 12:48:15;;;;;;;;;;;;;;;27.21;44.56;102225.19;10456561;28;19917;-70
2023/06/05 12:53:15;;;;;;;;;;;;;;;27.18;44.77;102218.22;10438013;28;19951;-71
2023/06/05 12:58:15;;;;;;;;;;;;;;;27.09;45.13;102220.72;10454642;28;19916;-72
2023/06/05 13:03:16;;;;;;;;;;;;;;;26.69;45.14;102220.63;10454343;28;20006;-71
2023/06/05 13:08:16;;;;;;;;;;;;;;;26.71;44.71;102204.50;10455205;28;19932;-70
2023/06/05 13:13:17;;;;;;;;;;;;;;;26.45;44.81;102204.41;10437366;28;19924;-73
2023/06/05 13:18:17;;;;;;;;;;;;;;;26.26;45.76;102194.91;10453926;28;19921;-72
2023/06/05 13:23:17;;;;;;;;;;;;;;;26.23;45.65;102198.22;10455597;28;19927;-71
2023/06/05 13:28:18;;;;;;;;;;;;;;;26.07;45.55;102189.84;10421026;28;20011;-71
2023/06/05 13:33:18;;;;;;;;;;;;;;;25.86;45.58;102183.34;10455241;28;20221;-69
2023/06/05 13:38:21;;;;;;;;;;;;;;;25.66;45.13;102186.81;10436740;28;20224;-69
2023/06/05 13:43:21;;;;;;;;;;;;;;;25.13;45.44;102185.88;10454810;28;20405;-71
2023/06/05 13:48:21;;;;;;;;;;;;;;;25.18;46.31;102172.06;10454332;28;19988;-71
2023/06/05 13:53:21;;;;;;;;;;;;;;;25.03;43.52;102171.91;10436506;28;20331;-71
2023/06/05 13:58:21;;;;;;;;;;;;;;;24.61;45.84;102189.22;10453585;28;19960;-71
2023/06/05 14:03:22;;;;;;;;;;;;;;;24.56;46.62;102173.38;10454116;28;19921;-71
2023/06/05 14:08:22;;;;;;;;;;;;;;;24.36;46.76;102178.66;10454221;28;19944;-72
2023/06/05 14:13:22;;;;;;;;;;;;;;;24.40;46.92;102174.28;10453581;28;20010;-71
2023/06/05 14:18:25;;;;;;;;;;;;;;;23.96;45.96;102167.91;10438532;28;20298;-71
2023/06/05 14:23:25;;;;;;;;;;;;;;;23.80;47.24;102159.44;10441031;28;19924;-71
2023/06/05 14:28:28;;;;;;;;;;;;;;;23.56;47.52;102164.31;10421816;28;19916;-72
2023/06/05 14:33:28;;;;;;;;;;;;;;;23.65;47.80;102173.00;10453838;28;19924;-70
2023/06/05 14:38:28;;;;;;;;;;;;;;;23.25;47.99;102157.47;10439158;28;19924;-71
2023/06/05 14:43:29;;;;;;;;;;;;;;;22.92;48.16;102161.03;10443095;28;20424;-71
2023/06/05 14:48:29;;;;;;;;;;;;;;;22.67;48.29;102153.13;10460712;28;20360;-70
2023/06/05 14:53:32;;;;;;;;;;;;;;;22.70;48.77;102147.13;10460988;28;19921;-71
2023/06/05 14:58:32;;;;;;;;;;;;;;;22.82;48.88;102152.59;10460531;28;19933;-71
2023/06/05 15:03:32;;;;;;;;;;;;;;;22.68;49.04;102154.78;10443570;28;19933;-71
2023/06/05 15:08:32;;;;;;;;;;;;;;;22.43;49.53;102147.72;10441527;28;20318;-72
2023/06/05 15:13:33;;;;;;;;;;;;;;;22.24;49.80;102146.25;10459008;28;19998;-71
2023/06/05 15:18:33;;;;;;;;;;;;;;;22.27;49.94;102149.34;10459721;28;19917;-75
2023/06/05 15:23:34;;;;;;;;;;;;;;;22.15;50.11;102148.53;10442398;28;20023;-72
2023/06/05 15:28:34;;;;;;;;;;;;;;;21.77;50.63;102149.09;10459148;28;19921;-71
2023/06/05 15:33:34;;;;;;;;;;;;;;;21.46;50.87;102145.63;10441143;28;19924;-70
2023/06/05 15:38:35;;;;;;;;;;;;;;;21.25;51.16;102144.28;10458680;28;19920;-71
2023/06/05 15:43:35;;;;;;;;;;;;;;;21.19;51.35;102139.72;10457727;28;19921;-71
2023/06/05 15:48:35;;;;;;;;;;;;;;;20.90;51.78;102124.97;10458986;28;19958;-71
2023/06/05 15:53:36;;;;;;;;;;;;;;;20.73;51.71;102148.72;10440127;28;19996;-71
2023/06/05 15:58:36;;;;;;;;;;;;;;;20.69;51.80;102137.34;10457860;28;19928;-70
2023/06/05 16:03:36;;;;;;;;;;;;;;;20.52;52.43;102128.09;10440863;28;19921;-70
2023/06/05 16:08:40;;;;;;;;;;;;;;;19.87;53.91;102131.44;10458190;28;19990;-70
2023/06/05 16:13:40;;;;;;;;;;;;;;;19.61;53.56;102127.06;10439297;28;19917;-71
2023/06/05 16:18:40;;;;;;;;;;;;;;;19.33;54.76;102120.16;10438557;28;19920;-70
2023/06/05 16:23:40;;;;;;;;;;;;;;;18.86;53.59;102130.72;10457870;28;20359;-71
2023/06/05 16:28:41;;;;;;;;;;;;;;;18.39;53.68;102123.81;10422574;28;20009;-70
2023/06/05 16:33:41;;;;;;;;;;;;;;;17.98;54.97;102130.53;10457042;28;19947;-71
2023/06/05 16:38:41;;;;;;;;;;;;;;;17.84;53.89;102119.66;10456680;28;19928;-70
2023/06/05 16:43:41;;;;;;;;;;;;;;;17.69;55.64;102119.03;10438317;28;20334;-70
2023/06/05 16:48:42;;;;;;;;;;;;;;;17.39;58.30;102122.25;10455772;28;19955;-71
2023/06/05 16:53:42;;;;;;;;;;;;;;;17.03;62.37;102119.94;10457644;28;19921;-70
2023/06/05 16:58:42;;;;;;;;;;;;;;;16.80;62.21;102106.69;10458227;28;19932;-70
2023/06/05 17:03:42;;;;;;;;;;;;;;;16.83;58.74;102108.16;10454932;28;19928;-69
2023/06/05 17:08:43;;;;;;;;;;;;;;;16.80;59.79;102116.78;10436819;28;19986;-70
2023/06/05 17:13:43;;;;;;;;;;;;;;;16.71;63.62;102106.00;10455647;28;19917;-70
2023/06/05 17:18:44;;;;;;;;;;;;;;;16.56;67.96;102107.25;10436979;28;20008;-70
2023/06/05 17:23:44;;;;;;;;;;;;;;;16.53;63.94;102111.25;10437618;28;20360;-70
2023/06/05 17:28:45;;;;;;;;;;;;;;;16.36;66.77;102107.22;10455260;28;19963;-70
2023/06/05 17:33:46;;;;;;;;;;;;;;;16.26;69.02;102102.97;10436598;28;19935;-69
2023/06/05 17:38:46;;;;;;;;;;;;;;;16.16;66.50;102105.28;10436353;28;19932;-71
2023/06/05 17:43:48;;;;;;;;;;;;;;;15.93;69.50;102107.50;10454982;28;20217;-70
2023/06/05 17:48:49;;;;;;;;;;;;;;;15.82;74.59;102100.72;10436219;28;19917;-70
2023/06/05 17:53:49;;;;;;;;;;;;;;;15.78;72.39;102103.00;10453881;28;20244;-70
2023/06/05 17:58:49;;;;;;;;;;;;;;;15.79;71.23;102107.44;10419505;28;19921;-70
2023/06/05 18:03:51;;;;;;;;;;;;;;;15.69;75.64;102103.38;10436670;28;19975;-70
2023/06/05 18:08:51;;;;;;;;;;;;;;;15.47;80.57;102103.44;10454195;28;19985;-70
2023/06/05 18:13:52;;;;;;;;;;;;;;;15.39;76.58;102100.88;10441721;28;19916;-71
2023/06/05 18:18:52;;;;;;;;;;;;;;;15.39;75.06;102109.06;10443983;28;19955;-70
2023/06/05 18:23:52;;;;;;;;;;;;;;;15.37;73.18;102102.09;10461252;28;19921;-70
2023/06/05 18:28:53;;;;;;;;;;;;;;;15.19;78.26;102097.16;10461166;28;19920;-70
2023/06/05 18:33:53;;;;;;;;;;;;;;;15.12;75.84;102110.75;10426746;28;19937;-69
2023/06/05 18:38:53;;;;;;;;;;;;;;;15.00;75.86;102101.44;10461754;28;19920;-70
2023/06/05 18:43:54;;;;;;;;;;;;;;;14.86;79.64;102104.03;10460191;28;19920;-70
2023/06/05 18:48:54;;;;;;;;;;;;;;;14.75;79.10;102103.75;10461571;28;19920;-72
2023/06/05 18:53:54;;;;;;;;;;;;;;;14.57;80.51;102105.03;10460193;28;20022;-70
2023/06/05 18:58:54;;;;;;;;;;;;;;;14.49;78.09;102107.84;10460696;28;19923;-69
2023/06/05 19:03:55;;;;;;;;;;;;;;;14.42;79.09;102106.94;10460264;28;19921;-70
2023/06/05 19:08:55;;;;;;;;;;;;;;;14.33;79.12;102111.66;10459486;28;20371;-70
2023/06/05 19:13:55;;;;;;;;;;;;;;;14.21;80.05;102121.38;10459770;28;19920;-69
2023/06/05 19:18:56;;;;;;;;;;;;;;;14.06;82.44;102123.28;10441924;28;19932;-70
2023/06/05 19:23:56;;;;;;;;;;;;;;;13.97;79.68;102122.53;10459724;28;19943;-70
2023/06/05 19:28:56;;;;;;;;;;;;;;;13.85;78.46;102119.47;10460928;28;20003;-70
2023/06/05 19:33:56;;;;;;;;;;;;;;;13.73;79.25;102131.88;10462527;28;19935;-73
2023/06/05 19:38:57;;;;;;;;;;;;;;;13.64;82.52;102124.84;10460149;28;19925;-72
2023/06/05 19:43:57;;;;;;;;;;;;;;;13.54;81.28;102121.56;10459442;28;19970;-71
2023/06/05 19:48:57;;;;;;;;;;;;;;;13.43;85.23;102126.44;10458868;28;20349;-72
2023/06/05 19:53:58;;;;;;;;;;;;;;;13.34;83.25;102135.72;10457899;28;20023;-71
2023/06/05 19:58:58;;;;;;;;;;;;;;;13.25;82.61;102134.09;10440297;28;19928;-71
2023/06/05 20:03:58;;;;;;;;;;;;;;;13.14;85.88;102135.34;10457617;28;19928;-70
2023/06/05 20:08:58;;;;;;;;;;;;;;;13.08;84.61;102136.09;10439445;28;19936;-73
2023/06/05 20:13:59;;;;;;;;;;;;;;;13.03;83.13;102143.94;10439102;28;19955;-71
2023/06/05 20:18:59;;;;;;;;;;;;;;;12.92;82.95;102150.69;10439560;28;19924;-70
2023/06/05 20:23:59;;;;;;;;;;;;;;;12.87;85.22;102141.38;10422204;28;20379;-69
2023/06/05 20:28:59;;;;;;;;;;;;;;;12.83;88.88;102142.75;10456452;28;19952;-68
2023/06/05 20:34:00;;;;;;;;;;;;;;;12.79;86.21;102150.41;10455630;28;19931;-70
2023/06/05 20:39:00;;;;;;;;;;;;;;;12.76;87.38;102148.94;10455772;28;19921;-71
2023/06/05 20:44:00;;;;;;;;;;;;;;;12.72;87.66;102165.75;10437626;28;19917;-70
2023/06/05 20:49:03;;;;;;;;;;;;;;;12.71;90.36;102164.94;10455231;28;19921;-71
2023/06/05 20:54:03;;;;;;;;;;;;;;;12.66;86.54;102164.59;10454669;28;19947;-68
2023/06/05 20:59:03;;;;;;;;;;;;;;;12.63;89.06;102166.84;10456053;28;19981;-71
2023/06/05 21:04:04;;;;;;;;;;;;;;;12.62;90.49;102167.88;10436857;28;19960;-70
2023/06/05 21:09:04;;;;;;;;;;;;;;;12.56;89.41;102162.13;10454850;28;19947;-69
2023/06/05 21:14:04;;;;;;;;;;;;;;;12.58;93.22;102170.13;10454765;28;19928;-71
2023/06/05 21:19:05;;;;;;;;;;;;;;;12.53;97.89;102169.78;10455082;28;19970;-70
2023/06/05 21:24:05;;;;;;;;;;;;;;;12.52;99.95;102174.38;10436425;28;19932;-71
2023/06/05 21:29:05;;;;;;;;;;;;;;;12.52;98.62;102168.13;10454146;28;19921;-70
2023/06/05 21:34:05;;;;;;;;;;;;;;;12.45;98.13;102164.44;10455569;28;20018;-71
2023/06/05 21:39:06;;;;;;;;;;;;;;;12.40;100.00;102172.25;10454691;28;20256;-71
2023/06/05 21:44:06;;;;;;;;;;;;;;;12.32;100.00;102175.88;10453792;28;19930;-72
2023/06/05 21:49:06;;;;;;;;;;;;;;;12.31;100.00;102169.56;10453007;28;20011;-70
2023/06/05 21:54:06;;;;;;;;;;;;;;;12.26;100.00;102161.13;10453314;28;20012;-70
2023/06/05 21:59:07;;;;;;;;;;;;;;;12.23;100.00;102164.19;10454953;28;19925;-72
2023/06/05 22:04:07;;;;;;;;;;;;;;;12.17;100.00;102167.63;10454869;28;20354;-69
2023/06/05 22:09:09;;;;;;;;;;;;;;;12.11;100.00;102173.75;10453896;28;19936;-71
2023/06/05 22:14:09;;;;;;;;;;;;;;;12.10;100.00;102167.47;10436621;28;19921;-70
2023/06/05 22:19:12;;;;;;;;;;;;;;;12.04;100.00;102178.22;10453235;28;19927;-70
2023/06/05 22:24:12;;;;;;;;;;;;;;;12.01;100.00;102173.13;10454373;28;19927;-70
2023/06/05 22:29:12;;;;;;;;;;;;;;;11.95;100.00;102181.97;10452930;28;19921;-70
2023/06/05 22:34:13;;;;;;;;;;;;;;;11.91;100.00;102183.34;10452945;28;19920;-71
2023/06/05 22:39:13;;;;;;;;;;;;;;;11.85;100.00;102191.16;10454049;28;19921;-71
2023/06/05 22:44:14;;;;;;;;;;;;;;;11.77;99.60;102193.88;10452779;28;20386;-70
2023/06/05 22:49:14;;;;;;;;;;;;;;;11.75;100.00;102190.47;10453111;28;19925;-70
2023/06/05 22:54:15;;;;;;;;;;;;;;;11.70;99.77;102198.28;10453249;28;19920;-70
2023/06/05 22:59:15;;;;;;;;;;;;;;;11.66;97.83;102205.09;10437306;28;20020;-72
2023/06/05 23:04:20;;;;;;;;;;;;;;;11.60;99.31;102203.06;10441634;28;20363;-69
2023/06/05 23:09:22;;;;;;;;;;;;;;;11.60;100.00;102209.34;10460049;28;19920;-71
2023/06/05 23:14:22;;;;;;;;;;;;;;;11.61;100.00;102204.75;10441645;28;19917;-71
2023/06/05 23:19:22;;;;;;;;;;;;;;;11.57;100.00;102196.09;10459214;28;19917;-70
2023/06/05 23:24:22;;;;;;;;;;;;;;;11.52;100.00;102194.91;10459158;28;20318;-71
2023/06/05 23:29:23;;;;;;;;;;;;;;;11.44;100.00;102192.25;10459723;28;19925;-70
2023/06/05 23:34:23;;;;;;;;;;;;;;;11.43;100.00;102201.41;10458700;28;20252;-70
2023/06/05 23:39:23;;;;;;;;;;;;;;;11.37;100.00;102198.34;10459108;28;19921;-70
2023/06/05 23:44:23;;;;;;;;;;;;;;;11.34;100.00;102192.41;10440460;28;19917;-72
2023/06/05 23:49:24;;;;;;;;;;;;;;;11.32;100.00;102197.16;10440247;28;19924;-71
2023/06/05 23:54:25;;;;;;;;;;;;;;;11.29;100.00;102192.91;10441031;28;19971;-71
2023/06/05 23:59:25;;;;;;;;;;;;;;;11.22;100.00;102200.03;10439793;28;19921;-71
